Time;durP1;ratioP1;P1;durP2;ratioP2;P2;SDS_P1;SDS_P2;PMS_P1;PMS_P2;Temp;Humidity;BMP_temperature;BMP_pressure;BME280_temperature;BME280_humidity;BME280_pressure;Samples;Min_cycle;Max_cycle;Signal;HPM_P1;HPM_P2
2022/07/22 00:01:30;;;;;;;;;;;15.50;99.90;;;;;;4969013;28;19926;-81
2022/07/22 00:03:55;;;;;;;;;;;15.50;99.90;;;;;;4969966;28;19957;-80
2022/07/22 00:06:21;;;;;;;;;;;15.50;99.90;;;;;;4981517;28;19932;-80
2022/07/22 00:08:47;;;;;;;;;;;15.50;99.90;;;;;;4986783;28;19938;-80
2022/07/22 00:11:13;;;;;;;;;;;15.40;99.90;;;;;;4986767;28;19936;-83
2022/07/22 00:13:39;;;;;;;;;;;15.50;99.90;;;;;;4985805;28;19937;-80
2022/07/22 00:16:05;;;;;;;;;;;15.50;99.90;;;;;;4968587;28;20016;-80
2022/07/22 00:18:30;;;;;;;;;;;15.50;99.90;;;;;;4979718;28;19926;-81
2022/07/22 00:20:56;;;;;;;;;;;15.50;99.90;;;;;;4969358;28;19937;-81
2022/07/22 00:23:22;;;;;;;;;;;15.50;99.90;;;;;;4969523;28;19996;-80
2022/07/22 00:25:48;;;;;;;;;;;15.50;99.90;;;;;;4985358;28;19925;-80
2022/07/22 00:28:14;;;;;;;;;;;15.50;99.90;;;;;;4984769;28;19957;-80
2022/07/22 00:30:40;;;;;;;;;;;15.50;99.90;;;;;;4978455;28;19951;-80
2022/07/22 00:33:05;;;;;;;;;;;15.50;99.90;;;;;;4986688;28;19926;-79
2022/07/22 00:35:31;;;;;;;;;;;15.50;99.90;;;;;;4992555;28;19999;-80
2022/07/22 00:37:58;;;;;;;;;;;15.60;99.90;;;;;;4988633;28;19936;-83
2022/07/22 00:40:24;;;;;;;;;;;15.60;99.90;;;;;;4969523;28;19926;-78
2022/07/22 00:42:50;;;;;;;;;;;15.50;99.90;;;;;;5000448;28;19992;-79
2022/07/22 00:45:16;;;;;;;;;;;15.50;99.90;;;;;;4951352;28;19972;-80
2022/07/22 00:47:42;;;;;;;;;;;15.60;99.90;;;;;;4980707;28;19977;-80
2022/07/22 00:50:08;;;;;;;;;;;15.50;99.90;;;;;;4975462;28;19955;-79
2022/07/22 00:52:34;;;;;;;;;;;15.50;99.90;;;;;;4992443;28;19930;-80
2022/07/22 00:55:00;;;;;;;;;;;15.50;99.90;;;;;;4991513;28;19929;-80
2022/07/22 00:57:26;;;;;;;;;;;15.50;99.90;;;;;;4992412;28;19940;-81
2022/07/22 00:59:52;;;;;;;;;;;15.50;99.90;;;;;;4990512;28;19940;-79
2022/07/22 01:02:18;;;;;;;;;;;15.50;99.90;;;;;;4975485;28;19926;-81
2022/07/22 01:04:44;;;;;;;;;;;15.40;99.90;;;;;;4992210;28;19969;-80
2022/07/22 01:07:10;;;;;;;;;;;15.40;99.90;;;;;;4975784;28;19925;-80
2022/07/22 01:09:36;;;;;;;;;;;15.40;99.90;;;;;;4991692;28;19926;-81
2022/07/22 01:12:02;;;;;;;;;;;15.40;99.90;;;;;;4992202;28;19952;-82
2022/07/22 01:14:28;;;;;;;;;;;15.40;99.90;;;;;;4990790;28;19925;-82
2022/07/22 01:16:54;;;;;;;;;;;15.40;99.90;;;;;;4988949;28;20390;-78
2022/07/22 01:19:20;;;;;;;;;;;15.40;99.90;;;;;;4975408;28;20372;-80
2022/07/22 01:21:46;;;;;;;;;;;15.40;99.90;;;;;;4975571;28;20012;-82
2022/07/22 01:24:12;;;;;;;;;;;15.30;99.90;;;;;;4959184;28;20032;-81
2022/07/22 01:26:38;;;;;;;;;;;15.40;99.90;;;;;;4975999;28;19933;-83
2022/07/22 01:29:04;;;;;;;;;;;15.30;99.90;;;;;;5008951;28;20353;-82
2022/07/22 01:31:30;;;;;;;;;;;15.30;99.90;;;;;;5005000;28;20396;-79
2022/07/22 01:33:56;;;;;;;;;;;15.40;99.90;;;;;;4991618;28;20348;-82
2022/07/22 01:36:22;;;;;;;;;;;15.40;99.90;;;;;;4991580;28;20385;-80
2022/07/22 01:38:48;;;;;;;;;;;15.40;99.90;;;;;;4991153;28;19944;-80
2022/07/22 01:41:13;;;;;;;;;;;15.40;99.90;;;;;;4959258;28;19968;-81
2022/07/22 01:43:39;;;;;;;;;;;15.30;99.90;;;;;;4990474;28;19926;-82
2022/07/22 01:46:06;;;;;;;;;;;15.40;99.90;;;;;;4991518;28;19947;-79
2022/07/22 01:48:32;;;;;;;;;;;15.40;99.90;;;;;;4991225;28;19980;-80
2022/07/22 01:50:59;;;;;;;;;;;15.40;99.90;;;;;;4991557;28;20376;-80
2022/07/22 01:53:24;;;;;;;;;;;15.40;99.90;;;;;;4974958;28;19933;-80
2022/07/22 01:55:50;;;;;;;;;;;15.40;99.90;;;;;;4991033;28;20315;-81
2022/07/22 01:58:16;;;;;;;;;;;15.30;99.90;;;;;;4988920;28;19925;-80
2022/07/22 02:00:42;;;;;;;;;;;15.30;99.90;;;;;;4972508;28;19926;-80
2022/07/22 02:03:08;;;;;;;;;;;15.30;99.90;;;;;;4990855;28;20020;-78
2022/07/22 02:08:56;;;;;;;;;;;15.30;99.90;;;;;;5040339;23;20012;-78
2022/07/22 02:11:21;;;;;;;;;;;15.30;99.90;;;;;;4989846;28;19925;-81
2022/07/22 02:13:47;;;;;;;;;;;15.30;99.90;;;;;;4973262;28;20003;-80
2022/07/22 02:16:13;;;;;;;;;;;15.30;99.90;;;;;;4990567;28;19959;-78
2022/07/22 02:18:39;;;;;;;;;;;15.30;99.90;;;;;;4965616;28;19977;-79
2022/07/22 02:21:04;;;;;;;;;;;15.30;99.90;;;;;;4972783;28;20416;-80
2022/07/22 02:23:30;;;;;;;;;;;15.20;99.90;;;;;;4967635;28;19976;-82
2022/07/22 02:25:56;;;;;;;;;;;15.20;99.90;;;;;;4957286;28;20323;-81
2022/07/22 02:28:22;;;;;;;;;;;15.20;99.90;;;;;;4954446;28;19926;-81
2022/07/22 02:30:47;;;;;;;;;;;15.20;99.90;;;;;;4953581;28;19934;-80
2022/07/22 02:33:14;;;;;;;;;;;15.20;99.90;;;;;;4969837;28;19952;-83
2022/07/22 02:35:40;;;;;;;;;;;15.20;99.90;;;;;;4975680;28;19925;-82
2022/07/22 02:38:06;;;;;;;;;;;15.20;99.90;;;;;;4974587;28;20421;-85
2022/07/22 02:40:32;;;;;;;;;;;15.20;99.90;;;;;;5000177;28;19921;-82
2022/07/22 02:42:58;;;;;;;;;;;15.20;99.90;;;;;;4976241;28;19933;-81
2022/07/22 02:45:23;;;;;;;;;;;15.20;99.90;;;;;;4970168;28;19922;-85
2022/07/22 02:47:51;;;;;;;;;;;15.20;99.90;;;;;;4956333;28;19926;-82
2022/07/22 02:50:16;;;;;;;;;;;15.20;99.90;;;;;;4972214;28;19957;-79
2022/07/22 02:52:42;;;;;;;;;;;15.20;99.90;;;;;;4968463;28;19929;-80
2022/07/22 02:55:08;;;;;;;;;;;15.20;99.90;;;;;;4967195;28;19937;-78
2022/07/22 02:57:34;;;;;;;;;;;15.20;99.90;;;;;;4974678;28;19929;-82
2022/07/22 03:00:00;;;;;;;;;;;15.20;99.90;;;;;;4972468;28;20503;-81
2022/07/22 03:02:26;;;;;;;;;;;15.30;99.90;;;;;;4989332;28;19972;-79
2022/07/22 03:04:52;;;;;;;;;;;15.20;99.90;;;;;;4969355;28;19969;-78
2022/07/22 03:07:18;;;;;;;;;;;15.30;99.90;;;;;;4986744;28;19929;-79
2022/07/22 03:09:45;;;;;;;;;;;15.30;99.90;;;;;;4988775;28;19936;-80
2022/07/22 03:12:10;;;;;;;;;;;15.30;99.90;;;;;;4988595;28;19961;-80
2022/07/22 03:14:36;;;;;;;;;;;15.30;99.90;;;;;;4969784;28;19980;-80
2022/07/22 03:17:02;;;;;;;;;;;15.30;99.90;;;;;;4967061;28;19930;-78
2022/07/22 03:19:28;;;;;;;;;;;15.30;99.90;;;;;;4973560;28;19952;-82
2022/07/22 03:21:53;;;;;;;;;;;15.30;99.90;;;;;;4990629;28;19925;-80
2022/07/22 03:24:19;;;;;;;;;;;15.30;99.90;;;;;;4968984;28;19929;-79
2022/07/22 03:26:45;;;;;;;;;;;15.30;99.90;;;;;;4973599;28;19929;-80
2022/07/22 03:29:11;;;;;;;;;;;15.30;99.90;;;;;;4968953;28;20412;-81
2022/07/22 03:31:36;;;;;;;;;;;15.30;99.90;;;;;;4954799;28;19926;-79
2022/07/22 03:34:02;;;;;;;;;;;15.20;99.90;;;;;;4987286;28;19929;-79
2022/07/22 03:36:29;;;;;;;;;;;15.20;99.90;;;;;;4987728;28;19929;-80
2022/07/22 03:38:55;;;;;;;;;;;15.20;99.90;;;;;;4985841;28;20016;-81
2022/07/22 03:41:21;;;;;;;;;;;15.20;99.90;;;;;;4989098;28;20024;-80
2022/07/22 03:43:47;;;;;;;;;;;15.20;99.90;;;;;;4963257;28;19987;-81
2022/07/22 03:46:13;;;;;;;;;;;15.20;99.90;;;;;;4968818;28;20063;-82
2022/07/22 03:48:38;;;;;;;;;;;15.20;99.90;;;;;;4972702;28;20016;-80
2022/07/22 03:51:05;;;;;;;;;;;15.10;99.90;;;;;;4968100;28;19926;-78
2022/07/22 03:53:32;;;;;;;;;;;15.10;99.90;;;;;;5000290;28;20042;-81
2022/07/22 03:55:58;;;;;;;;;;;15.20;99.90;;;;;;4991564;28;20305;-85
2022/07/22 03:58:26;;;;;;;;;;;15.20;99.90;;;;;;4988631;28;20019;-82
2022/07/22 04:00:52;;;;;;;;;;;15.20;99.90;;;;;;4972114;28;19936;-83
2022/07/22 04:03:18;;;;;;;;;;;15.10;99.90;;;;;;4972842;28;19941;-78
2022/07/22 04:05:44;;;;;;;;;;;15.20;99.90;;;;;;4976755;28;19933;-77
2022/07/22 04:08:10;;;;;;;;;;;15.20;99.90;;;;;;4988994;28;19929;-82
2022/07/22 04:10:36;;;;;;;;;;;15.20;99.90;;;;;;4984892;28;19948;-81
2022/07/22 04:13:01;;;;;;;;;;;15.20;99.90;;;;;;5006556;28;19933;-80
2022/07/22 04:15:27;;;;;;;;;;;15.10;99.90;;;;;;4971493;28;19929;-82
2022/07/22 04:17:53;;;;;;;;;;;15.10;99.90;;;;;;4989806;28;19995;-81
2022/07/22 04:20:19;;;;;;;;;;;15.10;99.90;;;;;;4986996;28;20410;-82
2022/07/22 04:22:45;;;;;;;;;;;15.10;99.90;;;;;;4973831;28;19925;-81
2022/07/22 04:25:10;;;;;;;;;;;15.10;99.90;;;;;;4976663;28;19930;-81
2022/07/22 04:27:36;;;;;;;;;;;15.10;99.90;;;;;;4993525;28;19925;-84
2022/07/22 04:30:04;;;;;;;;;;;15.10;99.90;;;;;;4991823;28;20016;-83
2022/07/22 04:32:30;;;;;;;;;;;15.10;99.90;;;;;;4993501;28;19933;-81
2022/07/22 04:34:56;;;;;;;;;;;15.00;99.90;;;;;;4976331;28;19936;-81
2022/07/22 04:37:22;;;;;;;;;;;15.00;99.90;;;;;;4992997;28;19940;-83
2022/07/22 04:39:47;;;;;;;;;;;15.00;99.90;;;;;;4975033;28;19934;-83
2022/07/22 04:42:13;;;;;;;;;;;15.10;99.90;;;;;;4992847;28;19937;-82
2022/07/22 04:44:39;;;;;;;;;;;15.10;99.90;;;;;;4994808;28;19929;-82
2022/07/22 04:47:05;;;;;;;;;;;15.10;99.90;;;;;;4988900;28;19932;-80
2022/07/22 04:49:31;;;;;;;;;;;15.10;99.90;;;;;;4999493;28;19926;-81
2022/07/22 04:51:56;;;;;;;;;;;15.10;99.90;;;;;;4991662;28;19925;-80
2022/07/22 04:54:22;;;;;;;;;;;15.10;99.90;;;;;;5009798;28;19984;-80
2022/07/22 04:56:49;;;;;;;;;;;15.10;99.90;;;;;;4992417;28;20011;-80
2022/07/22 04:59:14;;;;;;;;;;;15.10;99.90;;;;;;4972066;28;19930;-78
2022/07/22 05:01:40;;;;;;;;;;;15.10;99.90;;;;;;4985291;28;19955;-83
2022/07/22 05:04:06;;;;;;;;;;;15.10;99.90;;;;;;4970371;28;20032;-80
2022/07/22 05:06:32;;;;;;;;;;;15.10;99.90;;;;;;4979131;28;19984;-81
2022/07/22 05:08:58;;;;;;;;;;;15.10;99.90;;;;;;4966364;28;19937;-81
2022/07/22 05:11:24;;;;;;;;;;;15.20;99.90;;;;;;4991901;28;19988;-82
2022/07/22 05:13:49;;;;;;;;;;;15.10;99.90;;;;;;4991183;28;19926;-80
2022/07/22 05:16:15;;;;;;;;;;;15.10;99.90;;;;;;4996342;28;20043;-84
2022/07/22 05:18:41;;;;;;;;;;;15.10;99.90;;;;;;4976398;28;19941;-82
2022/07/22 05:21:07;;;;;;;;;;;15.10;99.90;;;;;;4991725;28;20507;-80
2022/07/22 05:23:33;;;;;;;;;;;15.10;99.90;;;;;;4989251;28;19925;-81
2022/07/22 05:25:59;;;;;;;;;;;15.10;99.90;;;;;;4968305;28;19995;-83
2022/07/22 05:28:24;;;;;;;;;;;15.10;99.90;;;;;;4958470;28;20460;-80
2022/07/22 05:30:50;;;;;;;;;;;15.10;99.90;;;;;;4986907;28;19925;-83
2022/07/22 05:33:17;;;;;;;;;;;15.10;99.90;;;;;;4990975;28;19926;-80
2022/07/22 05:35:42;;;;;;;;;;;15.10;99.90;;;;;;4987718;28;19933;-81
2022/07/22 05:38:08;;;;;;;;;;;15.10;99.90;;;;;;4990592;28;19930;-80
2022/07/22 05:40:34;;;;;;;;;;;15.10;99.90;;;;;;4990929;28;19933;-80
2022/07/22 05:43:00;;;;;;;;;;;15.20;99.90;;;;;;4974869;28;19980;-80
2022/07/22 05:45:25;;;;;;;;;;;15.20;99.90;;;;;;4989967;28;20029;-79
2022/07/22 05:47:51;;;;;;;;;;;15.20;99.90;;;;;;4968043;28;19926;-79
2022/07/22 05:50:17;;;;;;;;;;;15.20;99.90;;;;;;4979698;28;19980;-80
2022/07/22 05:52:44;;;;;;;;;;;15.20;99.90;;;;;;4974548;28;19930;-83
2022/07/22 05:55:10;;;;;;;;;;;15.20;99.90;;;;;;4981310;28;19929;-80
2022/07/22 05:57:36;;;;;;;;;;;15.30;99.90;;;;;;4995857;28;19926;-81
2022/07/22 06:00:03;;;;;;;;;;;15.20;99.90;;;;;;4978412;28;19933;-81
2022/07/22 06:02:29;;;;;;;;;;;15.30;99.90;;;;;;4976188;28;19976;-83
2022/07/22 06:04:54;;;;;;;;;;;15.30;99.90;;;;;;4992806;28;19961;-82
2022/07/22 06:07:20;;;;;;;;;;;15.30;99.90;;;;;;4979831;28;19926;-81
2022/07/22 06:09:46;;;;;;;;;;;15.30;99.90;;;;;;4980704;28;19933;-83
2022/07/22 06:12:12;;;;;;;;;;;15.30;99.90;;;;;;4998551;28;19930;-80
2022/07/22 06:14:37;;;;;;;;;;;15.40;99.90;;;;;;4979523;28;19940;-81
2022/07/22 06:17:03;;;;;;;;;;;15.30;99.90;;;;;;4970615;28;19960;-83
2022/07/22 06:19:29;;;;;;;;;;;15.40;99.90;;;;;;4975990;28;19926;-80
2022/07/22 06:21:55;;;;;;;;;;;15.40;99.90;;;;;;4994249;28;19930;-81
2022/07/22 06:24:21;;;;;;;;;;;15.40;99.90;;;;;;4983909;28;19976;-82
2022/07/22 06:26:47;;;;;;;;;;;15.50;99.90;;;;;;4976308;28;19930;-80
2022/07/22 06:29:14;;;;;;;;;;;15.50;99.90;;;;;;4976394;28;20435;-81
2022/07/22 06:31:40;;;;;;;;;;;15.50;99.90;;;;;;4986377;28;19945;-83
2022/07/22 06:34:06;;;;;;;;;;;15.60;99.90;;;;;;4980575;28;20358;-81
2022/07/22 06:36:32;;;;;;;;;;;15.60;99.90;;;;;;4994373;28;19934;-80
2022/07/22 06:38:58;;;;;;;;;;;15.60;99.90;;;;;;4974308;28;20025;-83
2022/07/22 06:41:24;;;;;;;;;;;15.60;99.90;;;;;;4979981;28;20421;-82
2022/07/22 06:43:50;;;;;;;;;;;15.60;99.90;;;;;;4996732;28;19926;-82
2022/07/22 06:46:16;;;;;;;;;;;15.70;99.90;;;;;;4993503;28;20135;-81
2022/07/22 06:48:42;;;;;;;;;;;15.70;99.90;;;;;;4982321;28;19985;-81
2022/07/22 06:51:08;;;;;;;;;;;15.70;99.90;;;;;;5007136;28;19930;-84
2022/07/22 06:53:34;;;;;;;;;;;15.80;99.90;;;;;;4975667;28;19937;-84
2022/07/22 06:55:59;;;;;;;;;;;15.80;99.90;;;;;;4974830;28;19926;-86
2022/07/22 06:58:25;;;;;;;;;;;15.80;99.90;;;;;;4991717;28;20008;-84
2022/07/22 07:00:51;;;;;;;;;;;15.90;99.90;;;;;;4976987;28;19956;-86
2022/07/22 07:03:17;;;;;;;;;;;16.00;99.90;;;;;;4978124;28;21223;-85
2022/07/22 07:05:43;;;;;;;;;;;16.00;99.90;;;;;;4972628;28;19926;-87
2022/07/22 07:08:08;;;;;;;;;;;16.00;99.90;;;;;;4992277;28;20032;-84
2022/07/22 07:10:34;;;;;;;;;;;16.10;99.90;;;;;;4977787;28;19940;-86
2022/07/22 07:13:00;;;;;;;;;;;16.20;99.90;;;;;;4974075;28;19925;-85
2022/07/22 07:15:26;;;;;;;;;;;16.20;99.90;;;;;;4978463;28;20012;-87
2022/07/22 07:17:53;;;;;;;;;;;16.20;99.90;;;;;;4989535;28;19929;-84
2022/07/22 07:20:19;;;;;;;;;;;16.20;99.90;;;;;;4986234;28;19973;-84
2022/07/22 07:22:45;;;;;;;;;;;16.20;99.90;;;;;;4972775;28;19960;-84
2022/07/22 07:25:12;;;;;;;;;;;16.20;99.90;;;;;;4969187;28;19932;-86
2022/07/22 07:27:37;;;;;;;;;;;16.20;99.90;;;;;;4997113;28;19933;-84
2022/07/22 07:30:04;;;;;;;;;;;16.20;99.90;;;;;;4970319;28;20670;-85
2022/07/22 07:32:30;;;;;;;;;;;16.20;99.90;;;;;;4981573;28;19984;-84
2022/07/22 07:34:56;;;;;;;;;;;16.20;99.90;;;;;;4965963;28;19929;-85
2022/07/22 07:37:21;;;;;;;;;;;16.20;99.90;;;;;;4976531;28;19980;-85
2022/07/22 07:39:47;;;;;;;;;;;16.30;99.90;;;;;;4993726;28;19937;-84
2022/07/22 07:42:13;;;;;;;;;;;16.30;99.90;;;;;;4994320;28;19933;-81
2022/07/22 07:44:39;;;;;;;;;;;16.40;99.90;;;;;;4971830;28;20304;-81
2022/07/22 07:47:04;;;;;;;;;;;16.40;99.90;;;;;;4981739;28;19973;-82
2022/07/22 07:49:30;;;;;;;;;;;16.40;99.90;;;;;;4969215;28;20308;-83
2022/07/22 07:51:56;;;;;;;;;;;16.50;99.90;;;;;;4992513;28;19940;-83
2022/07/22 07:54:22;;;;;;;;;;;16.50;99.90;;;;;;4969480;28;19925;-85
2022/07/22 07:56:47;;;;;;;;;;;16.50;99.90;;;;;;4971825;28;19929;-81
2022/07/22 07:59:14;;;;;;;;;;;16.60;99.90;;;;;;4970027;28;19981;-84
2022/07/22 08:01:39;;;;;;;;;;;16.60;99.90;;;;;;4983437;28;19991;-83
2022/07/22 08:04:05;;;;;;;;;;;16.60;99.90;;;;;;4990264;28;20324;-83
2022/07/22 08:06:31;;;;;;;;;;;16.70;99.90;;;;;;4958080;28;19929;-84
2022/07/22 08:08:57;;;;;;;;;;;16.70;99.90;;;;;;4954538;28;19933;-86
2022/07/22 08:11:22;;;;;;;;;;;16.80;99.90;;;;;;4972193;28;19934;-86
2022/07/22 08:13:48;;;;;;;;;;;16.90;99.90;;;;;;4970520;28;19981;-82
2022/07/22 08:16:14;;;;;;;;;;;16.90;99.90;;;;;;5000869;28;19930;-83
2022/07/22 08:18:40;;;;;;;;;;;16.80;99.90;;;;;;4966186;28;19948;-87
2022/07/22 08:21:06;;;;;;;;;;;16.90;99.90;;;;;;4974526;28;19934;-84
2022/07/22 08:23:32;;;;;;;;;;;16.80;99.90;;;;;;4958266;28;20037;-85
2022/07/22 08:25:58;;;;;;;;;;;16.70;99.90;;;;;;4979672;28;20029;-84
2022/07/22 08:28:25;;;;;;;;;;;16.70;99.90;;;;;;4984800;28;20016;-83
2022/07/22 08:30:54;;;;;;;;;;;16.70;99.90;;;;;;4985816;28;19929;-85
2022/07/22 08:33:20;;;;;;;;;;;16.60;99.90;;;;;;4980709;28;19952;-84
2022/07/22 08:35:45;;;;;;;;;;;16.60;99.90;;;;;;4982225;28;19932;-83
2022/07/22 08:38:11;;;;;;;;;;;16.50;99.90;;;;;;4983735;28;20075;-82
2022/07/22 08:40:37;;;;;;;;;;;16.50;99.90;;;;;;4999683;28;19929;-83
2022/07/22 08:43:04;;;;;;;;;;;16.50;99.90;;;;;;4977829;28;19930;-83
2022/07/22 08:45:30;;;;;;;;;;;16.50;99.90;;;;;;4979043;28;20416;-85
2022/07/22 08:47:58;;;;;;;;;;;16.60;99.90;;;;;;4960969;28;19941;-83
2022/07/22 08:50:24;;;;;;;;;;;16.60;99.90;;;;;;4990898;28;19930;-84
2022/07/22 08:52:51;;;;;;;;;;;16.50;99.90;;;;;;4982081;28;20012;-86
2022/07/22 08:55:16;;;;;;;;;;;16.50;99.90;;;;;;4975031;28;20720;-84
2022/07/22 08:57:46;;;;;;;;;;;16.50;99.90;;;;;;4974945;28;19973;-84
2022/07/22 09:00:13;;;;;;;;;;;16.50;99.90;;;;;;4967563;28;20648;-88
2022/07/22 09:02:41;;;;;;;;;;;16.50;99.90;;;;;;4954135;28;19934;-86
2022/07/22 09:05:08;;;;;;;;;;;16.50;99.90;;;;;;4964078;28;20024;-83
2022/07/22 09:07:35;;;;;;;;;;;16.50;99.90;;;;;;4999195;28;20035;-88
2022/07/22 09:10:07;;;;;;;;;;;16.50;99.90;;;;;;4986251;28;20531;-85
2022/07/22 09:12:34;;;;;;;;;;;16.60;99.90;;;;;;4981235;28;19998;-85
2022/07/22 09:15:01;;;;;;;;;;;16.60;99.90;;;;;;4994484;28;19925;-86
2022/07/22 09:17:31;;;;;;;;;;;16.20;99.90;;;;;;5001865;28;19936;-82
2022/07/22 09:19:58;;;;;;;;;;;16.70;99.90;;;;;;4974663;28;19980;-83
2022/07/22 09:22:32;;;;;;;;;;;16.70;99.90;;;;;;4990885;28;19965;-86
2022/07/22 09:24:59;;;;;;;;;;;16.70;99.90;;;;;;4972583;28;19934;-86
2022/07/22 09:27:26;;;;;;;;;;;16.80;99.90;;;;;;4993368;28;19943;-85
2022/07/22 09:29:53;;;;;;;;;;;16.80;99.90;;;;;;4972677;28;19930;-84
2022/07/22 09:32:19;;;;;;;;;;;16.80;99.90;;;;;;4959885;28;19926;-81
2022/07/22 09:34:44;;;;;;;;;;;16.80;99.90;;;;;;4985131;28;19930;-81
2022/07/22 09:37:17;;;;;;;;;;;16.80;99.90;;;;;;4969556;28;20499;-82
2022/07/22 09:39:43;;;;;;;;;;;16.90;99.90;;;;;;4970058;28;20371;-81
2022/07/22 09:42:08;;;;;;;;;;;16.80;99.90;;;;;;4977890;28;19940;-82
2022/07/22 09:44:34;;;;;;;;;;;16.90;99.90;;;;;;4988360;28;19932;-81
2022/07/22 09:47:00;;;;;;;;;;;16.80;99.90;;;;;;4987961;28;20335;-83
2022/07/22 09:49:29;;;;;;;;;;;16.80;99.90;;;;;;4974923;28;19933;-82
2022/07/22 09:51:56;;;;;;;;;;;16.80;99.90;;;;;;4991253;28;19929;-81
2022/07/22 09:54:22;;;;;;;;;;;16.80;99.90;;;;;;4974118;28;19925;-85
2022/07/22 09:56:54;;;;;;;;;;;16.80;99.90;;;;;;4982699;28;19988;-81
2022/07/22 09:59:20;;;;;;;;;;;16.80;99.90;;;;;;4970491;28;20356;-83
2022/07/22 10:01:47;;;;;;;;;;;16.80;99.90;;;;;;4980639;28;19932;-84
2022/07/22 10:04:14;;;;;;;;;;;16.80;99.90;;;;;;4984829;28;20698;-82
2022/07/22 10:06:41;;;;;;;;;;;16.90;99.90;;;;;;4979171;28;19929;-80
2022/07/22 10:09:07;;;;;;;;;;;17.00;99.90;;;;;;4978526;28;20405;-79
2022/07/22 10:11:33;;;;;;;;;;;17.00;99.90;;;;;;4987010;28;20320;-81
2022/07/22 10:13:59;;;;;;;;;;;16.80;99.90;;;;;;4984410;28;19929;-83
2022/07/22 10:16:25;;;;;;;;;;;17.10;99.90;;;;;;4963551;28;20292;-80
2022/07/22 10:18:51;;;;;;;;;;;17.20;99.90;;;;;;4991070;28;19983;-80
2022/07/22 10:21:17;;;;;;;;;;;17.20;99.90;;;;;;4974857;28;19933;-83
2022/07/22 10:23:43;;;;;;;;;;;;;;;;;;4971078;28;20456;-82
2022/07/22 10:26:09;;;;;;;;;;;17.20;99.90;;;;;;4992947;28;19929;-82
2022/07/22 10:28:36;;;;;;;;;;;17.20;99.90;;;;;;4990033;28;20277;-82
2022/07/22 10:31:23;;;;;;;;;;;17.20;99.90;;;;;;4957274;28;19929;-82
2022/07/22 10:33:53;;;;;;;;;;;17.20;99.90;;;;;;4965198;28;19936;-80
2022/07/22 10:36:35;;;;;;;;;;;17.10;99.90;;;;;;4989817;28;19933;-83
2022/07/22 10:39:06;;;;;;;;;;;17.20;99.90;;;;;;4981588;28;20443;-80
2022/07/22 10:41:43;;;;;;;;;;;17.20;99.90;;;;;;4989440;28;19930;-83
2022/07/22 10:44:09;;;;;;;;;;;17.20;99.90;;;;;;4984207;28;19929;-79
2022/07/22 10:46:49;;;;;;;;;;;17.20;99.90;;;;;;4972329;28;19921;-81
2022/07/22 10:49:16;;;;;;;;;;;17.30;99.90;;;;;;4967607;28;19960;-84
2022/07/22 10:52:01;;;;;;;;;;;17.40;99.90;;;;;;4998754;28;20020;-80
2022/07/22 10:54:27;;;;;;;;;;;17.60;99.90;;;;;;4981197;28;19973;-81
2022/07/22 10:56:54;;;;;;;;;;;17.70;99.90;;;;;;4988202;28;19978;-80
2022/07/22 10:59:21;;;;;;;;;;;17.80;99.90;;;;;;4983090;28;19925;-81
2022/07/22 11:01:50;;;;;;;;;;;17.80;99.90;;;;;;5006924;28;20008;-80
2022/07/22 11:04:21;;;;;;;;;;;17.80;99.90;;;;;;4992465;28;20021;-81
2022/07/22 11:06:48;;;;;;;;;;;17.80;99.90;;;;;;4984744;28;20020;-80
2022/07/22 11:09:15;;;;;;;;;;;17.80;99.90;;;;;;5006043;28;19948;-81
2022/07/22 11:11:42;;;;;;;;;;;17.80;99.90;;;;;;4989632;28;20300;-81
2022/07/22 11:14:19;;;;;;;;;;;17.80;99.90;;;;;;5000679;28;20326;-82
2022/07/22 11:16:46;;;;;;;;;;;17.80;99.90;;;;;;4985529;28;20360;-81
2022/07/22 11:19:13;;;;;;;;;;;17.80;99.90;;;;;;4981153;28;19933;-82
2022/07/22 11:21:39;;;;;;;;;;;17.80;99.90;;;;;;4988986;28;19984;-82
2022/07/22 11:24:06;;;;;;;;;;;17.80;99.90;;;;;;4992959;28;19932;-83
2022/07/22 11:26:43;;;;;;;;;;;17.90;99.90;;;;;;4976557;28;19975;-82
2022/07/22 11:29:10;;;;;;;;;;;17.90;99.90;;;;;;4986578;28;20636;-85
2022/07/22 11:31:37;;;;;;;;;;;17.80;99.90;;;;;;4982255;28;19952;-83
2022/07/22 11:34:07;;;;;;;;;;;17.80;99.90;;;;;;4988592;28;20372;-84
2022/07/22 11:36:36;;;;;;;;;;;17.70;99.90;;;;;;4989104;28;19933;-86
2022/07/22 11:39:02;;;;;;;;;;;17.80;99.90;;;;;;4957211;28;20012;-83
2022/07/22 11:41:29;;;;;;;;;;;17.70;99.90;;;;;;4974261;28;20082;-87
2022/07/22 11:43:55;;;;;;;;;;;17.70;99.90;;;;;;4988754;28;20333;-85
2022/07/22 11:46:21;;;;;;;;;;;17.60;99.90;;;;;;4972850;28;19925;-84
2022/07/22 11:48:47;;;;;;;;;;;17.60;99.90;;;;;;4972933;28;19995;-82
2022/07/22 11:51:14;;;;;;;;;;;17.60;99.90;;;;;;4958970;28;19973;-81
2022/07/22 11:53:40;;;;;;;;;;;17.60;99.90;;;;;;5002505;28;19933;-81
2022/07/22 11:56:07;;;;;;;;;;;17.60;99.90;;;;;;4984353;28;19997;-84
2022/07/22 11:58:36;;;;;;;;;;;17.60;99.90;;;;;;4997884;28;19933;-85
2022/07/22 12:01:03;;;;;;;;;;;17.50;99.90;;;;;;4995481;28;20531;-82
2022/07/22 12:03:29;;;;;;;;;;;17.50;99.90;;;;;;4986381;28;19938;-86
2022/07/22 12:05:55;;;;;;;;;;;17.40;99.90;;;;;;4993729;28;19930;-81
2022/07/22 12:08:20;;;;;;;;;;;17.40;99.90;;;;;;4966993;28;20383;-82
2022/07/22 12:10:46;;;;;;;;;;;17.40;99.90;;;;;;4975545;28;19937;-83
2022/07/22 12:13:13;;;;;;;;;;;17.40;99.90;;;;;;4979988;28;19976;-83
2022/07/22 12:15:39;;;;;;;;;;;17.40;99.90;;;;;;4956458;28;19951;-82
2022/07/22 12:18:15;;;;;;;;;;;17.40;99.90;;;;;;4965661;28;20408;-80
2022/07/22 12:20:45;;;;;;;;;;;17.40;99.90;;;;;;4992480;28;19937;-81
2022/07/22 12:23:11;;;;;;;;;;;17.40;99.90;;;;;;4986697;28;19925;-82
2022/07/22 12:25:57;;;;;;;;;;;17.50;99.90;;;;;;4969306;28;19969;-81
2022/07/22 12:28:23;;;;;;;;;;;17.50;99.90;;;;;;5001494;28;20296;-81
2022/07/22 12:30:51;;;;;;;;;;;17.60;99.90;;;;;;4985425;28;19937;-83
2022/07/22 12:33:17;;;;;;;;;;;17.70;99.90;;;;;;4989281;28;19937;-82
2022/07/22 12:35:44;;;;;;;;;;;17.70;99.90;;;;;;4988326;28;20015;-81
2022/07/22 12:38:10;;;;;;;;;;;17.80;99.90;;;;;;4989163;28;20330;-82
2022/07/22 12:40:37;;;;;;;;;;;17.90;99.90;;;;;;4987594;28;20017;-83
2022/07/22 12:43:02;;;;;;;;;;;17.90;99.90;;;;;;4988858;28;19937;-82
2022/07/22 12:45:29;;;;;;;;;;;17.90;99.90;;;;;;5006895;28;19930;-82
2022/07/22 12:47:57;;;;;;;;;;;17.90;99.90;;;;;;4992311;28;20503;-81
2022/07/22 12:50:23;;;;;;;;;;;17.80;99.90;;;;;;4992819;28;19929;-82
2022/07/22 12:52:49;;;;;;;;;;;17.80;99.90;;;;;;4998040;28;19957;-82
2022/07/22 12:55:15;;;;;;;;;;;17.70;99.90;;;;;;4991626;28;20003;-81
2022/07/22 12:57:41;;;;;;;;;;;17.70;99.90;;;;;;4988607;28;20338;-83
2022/07/22 13:00:09;;;;;;;;;;;17.70;99.90;;;;;;5005465;28;20031;-81
2022/07/22 13:02:35;;;;;;;;;;;17.70;99.90;;;;;;4992201;28;19932;-82
2022/07/22 13:05:01;;;;;;;;;;;17.70;99.90;;;;;;4954770;28;19925;-81
2022/07/22 13:07:26;;;;;;;;;;;17.80;99.90;;;;;;4992552;28;20404;-82
2022/07/22 13:09:53;;;;;;;;;;;17.80;99.90;;;;;;4986469;28;19930;-82
2022/07/22 13:12:19;;;;;;;;;;;17.90;99.90;;;;;;4988751;28;19925;-82
2022/07/22 13:14:45;;;;;;;;;;;17.90;99.90;;;;;;4996845;28;19941;-82
2022/07/22 13:17:12;;;;;;;;;;;17.90;99.90;;;;;;5000418;28;19929;-82
2022/07/22 13:19:39;;;;;;;;;;;18.00;99.90;;;;;;4998783;28;19980;-82
2022/07/22 13:22:04;;;;;;;;;;;18.00;99.90;;;;;;4982630;28;19937;-81
2022/07/22 13:24:30;;;;;;;;;;;18.00;99.90;;;;;;4998075;28;19926;-81
2022/07/22 13:26:56;;;;;;;;;;;18.00;99.90;;;;;;4978970;28;19941;-81
2022/07/22 13:29:22;;;;;;;;;;;18.00;99.90;;;;;;5003975;28;19929;-84
2022/07/22 13:31:49;;;;;;;;;;;;;;;;;;5000029;28;19934;-86
2022/07/22 13:34:15;;;;;;;;;;;18.10;99.90;;;;;;4984067;28;19926;-82
2022/07/22 13:36:40;;;;;;;;;;;18.20;99.90;;;;;;4973534;28;19957;-81
2022/07/22 13:39:07;;;;;;;;;;;18.30;99.90;;;;;;4990329;28;20016;-88
2022/07/22 13:41:33;;;;;;;;;;;18.30;99.90;;;;;;4976858;28;19992;-81
2022/07/22 13:43:58;;;;;;;;;;;18.30;99.90;;;;;;4974456;28;19934;-84
2022/07/22 13:46:24;;;;;;;;;;;18.30;99.90;;;;;;4974342;28;19961;-83
2022/07/22 13:48:50;;;;;;;;;;;18.30;99.90;;;;;;4958041;28;19925;-82
2022/07/22 13:51:16;;;;;;;;;;;18.20;99.90;;;;;;4976082;28;20022;-85
2022/07/22 13:53:42;;;;;;;;;;;18.20;99.90;;;;;;4978356;28;19956;-86
2022/07/22 13:56:09;;;;;;;;;;;18.10;99.90;;;;;;4978114;28;20401;-85
2022/07/22 13:58:35;;;;;;;;;;;18.10;99.90;;;;;;4984065;28;19939;-82
2022/07/22 14:01:01;;;;;;;;;;;18.10;99.90;;;;;;4988501;28;20261;-83
2022/07/22 14:03:28;;;;;;;;;;;18.00;99.90;;;;;;4989480;28;19992;-86
2022/07/22 14:05:55;;;;;;;;;;;18.20;99.90;;;;;;4991422;28;20070;-81
2022/07/22 14:08:21;;;;;;;;;;;18.20;99.90;;;;;;4967123;28;19968;-81
2022/07/22 14:10:47;;;;;;;;;;;18.20;99.90;;;;;;4992804;28;20406;-86
2022/07/22 14:13:13;;;;;;;;;;;18.20;99.90;;;;;;4987396;28;20012;-84
2022/07/22 14:15:39;;;;;;;;;;;18.20;99.90;;;;;;4999486;28;20017;-81
2022/07/22 14:18:06;;;;;;;;;;;18.20;99.90;;;;;;5008232;28;19952;-84